sensor_id;sensor_type;location;lat;lon;timestamp;P1;durP1;ratioP1;P2;durP2;ratioP2
40955;SDS011;26687;48.254;11.454;2023-08-31T00:01:41;1.87;;;1.17;;
40955;SDS011;26687;48.254;11.454;2023-08-31T00:04:41;1.20;;;1.10;;
40955;SDS011;26687;48.254;11.454;2023-08-31T00:07:41;1.10;;;1.00;;
40955;SDS011;26687;48.254;11.454;2023-08-31T00:10:41;1.38;;;1.27;;
40955;SDS011;26687;48.254;11.454;2023-08-31T00:13:41;1.30;;;1.20;;
40955;SDS011;26687;48.254;11.454;2023-08-31T00:16:42;1.75;;;1.30;;
40955;SDS011;26687;48.254;11.454;2023-08-31T00:19:43;1.50;;;1.20;;
40955;SDS011;26687;48.254;11.454;2023-08-31T00:22:43;3.05;;;1.25;;
40955;SDS011;26687;48.254;11.454;2023-08-31T00:25:43;1.10;;;1.00;;
40955;SDS011;26687;48.254;11.454;2023-08-31T00:28:43;1.40;;;1.30;;
40955;SDS011;26687;48.254;11.454;2023-08-31T00:31:44;1.90;;;1.80;;
40955;SDS011;26687;48.254;11.454;2023-08-31T00:34:44;2.80;;;1.02;;
40955;SDS011;26687;48.254;11.454;2023-08-31T00:37:45;1.20;;;1.10;;
40955;SDS011;26687;48.254;11.454;2023-08-31T00:40:45;0.95;;;0.95;;
40955;SDS011;26687;48.254;11.454;2023-08-31T00:43:45;1.00;;;0.98;;
40955;SDS011;26687;48.254;11.454;2023-08-31T00:46:46;1.35;;;1.23;;
40955;SDS011;26687;48.254;11.454;2023-08-31T00:49:46;1.20;;;1.10;;
40955;SDS011;26687;48.254;11.454;2023-08-31T00:52:47;1.42;;;1.25;;
40955;SDS011;26687;48.254;11.454;2023-08-31T00:55:47;2.83;;;1.30;;
40955;SDS011;26687;48.254;11.454;2023-08-31T00:58:47;1.20;;;1.10;;
40955;SDS011;26687;48.254;11.454;2023-08-31T01:02:05;1.83;;;1.25;;
40955;SDS011;26687;48.254;11.454;2023-08-31T01:06:09;1.63;;;1.42;;
40955;SDS011;26687;48.254;11.454;2023-08-31T01:17:59;1.30;;;1.20;;
40955;SDS011;26687;48.254;11.454;2023-08-31T01:21:02;2.10;;;1.48;;
40955;SDS011;26687;48.254;11.454;2023-08-31T01:24:06;1.33;;;1.15;;
40955;SDS011;26687;48.254;11.454;2023-08-31T01:27:06;1.88;;;1.50;;
40955;SDS011;26687;48.254;11.454;2023-08-31T01:30:06;1.60;;;1.50;;
40955;SDS011;26687;48.254;11.454;2023-08-31T01:33:06;1.35;;;1.25;;
40955;SDS011;26687;48.254;11.454;2023-08-31T01:36:23;2.33;;;1.33;;
40955;SDS011;26687;48.254;11.454;2023-08-31T01:39:33;1.95;;;1.63;;
40955;SDS011;26687;48.254;11.454;2023-08-31T01:42:35;4.57;;;1.45;;
40955;SDS011;26687;48.254;11.454;2023-08-31T01:45:36;1.75;;;1.65;;
40955;SDS011;26687;48.254;11.454;2023-08-31T01:48:38;1.42;;;1.30;;
40955;SDS011;26687;48.254;11.454;2023-08-31T01:51:38;3.03;;;1.55;;
40955;SDS011;26687;48.254;11.454;2023-08-31T01:54:38;1.90;;;1.70;;
40955;SDS011;26687;48.254;11.454;2023-08-31T01:57:38;1.80;;;1.70;;
40955;SDS011;26687;48.254;11.454;2023-08-31T02:00:38;1.83;;;1.70;;
40955;SDS011;26687;48.254;11.454;2023-08-31T02:03:39;1.50;;;1.40;;
40955;SDS011;26687;48.254;11.454;2023-08-31T02:06:40;1.80;;;1.70;;
40955;SDS011;26687;48.254;11.454;2023-08-31T02:09:40;2.50;;;1.83;;
40955;SDS011;26687;48.254;11.454;2023-08-31T02:12:40;1.85;;;1.70;;
40955;SDS011;26687;48.254;11.454;2023-08-31T02:15:40;2.17;;;2.03;;
40955;SDS011;26687;48.254;11.454;2023-08-31T02:18:41;2.50;;;1.95;;
40955;SDS011;26687;48.254;11.454;2023-08-31T02:21:41;5.78;;;2.10;;
40955;SDS011;26687;48.254;11.454;2023-08-31T02:24:41;2.33;;;2.13;;
40955;SDS011;26687;48.254;11.454;2023-08-31T02:27:41;2.13;;;2.00;;
40955;SDS011;26687;48.254;11.454;2023-08-31T02:30:43;4.53;;;1.83;;
40955;SDS011;26687;48.254;11.454;2023-08-31T02:33:44;2.20;;;2.00;;
40955;SDS011;26687;48.254;11.454;2023-08-31T02:36:44;2.00;;;1.90;;
40955;SDS011;26687;48.254;11.454;2023-08-31T02:39:44;2.13;;;2.03;;
40955;SDS011;26687;48.254;11.454;2023-08-31T02:42:45;2.35;;;2.15;;
40955;SDS011;26687;48.254;11.454;2023-08-31T02:45:45;2.03;;;1.93;;
40955;SDS011;26687;48.254;11.454;2023-08-31T02:48:45;2.15;;;2.00;;
40955;SDS011;26687;48.254;11.454;2023-08-31T02:51:45;2.60;;;2.40;;
40955;SDS011;26687;48.254;11.454;2023-08-31T02:54:47;2.50;;;2.30;;
40955;SDS011;26687;48.254;11.454;2023-08-31T02:57:47;2.75;;;2.40;;
40955;SDS011;26687;48.254;11.454;2023-08-31T03:00:48;2.38;;;2.20;;
40955;SDS011;26687;48.254;11.454;2023-08-31T03:03:48;2.88;;;2.40;;
40955;SDS011;26687;48.254;11.454;2023-08-31T03:06:48;2.97;;;2.67;;
40955;SDS011;26687;48.254;11.454;2023-08-31T03:09:49;3.67;;;2.45;;
40955;SDS011;26687;48.254;11.454;2023-08-31T03:12:50;2.90;;;2.60;;
40955;SDS011;26687;48.254;11.454;2023-08-31T03:15:50;2.60;;;2.40;;
40955;SDS011;26687;48.254;11.454;2023-08-31T03:18:50;2.92;;;2.72;;
40955;SDS011;26687;48.254;11.454;2023-08-31T03:21:51;2.73;;;2.53;;
40955;SDS011;26687;48.254;11.454;2023-08-31T03:24:51;2.75;;;2.55;;
40955;SDS011;26687;48.254;11.454;2023-08-31T03:27:51;2.50;;;2.30;;
40955;SDS011;26687;48.254;11.454;2023-08-31T03:30:57;2.42;;;2.13;;
40955;SDS011;26687;48.254;11.454;2023-08-31T03:33:57;3.03;;;2.83;;
40955;SDS011;26687;48.254;11.454;2023-08-31T03:36:58;3.35;;;3.05;;
40955;SDS011;26687;48.254;11.454;2023-08-31T03:39:58;2.60;;;2.40;;
40955;SDS011;26687;48.254;11.454;2023-08-31T03:42:58;3.60;;;2.60;;
40955;SDS011;26687;48.254;11.454;2023-08-31T03:45:59;3.27;;;2.30;;
40955;SDS011;26687;48.254;11.454;2023-08-31T03:48:59;2.38;;;2.22;;
40955;SDS011;26687;48.254;11.454;2023-08-31T03:52:00;2.83;;;2.60;;
40955;SDS011;26687;48.254;11.454;2023-08-31T03:55:00;2.47;;;2.28;;
40955;SDS011;26687;48.254;11.454;2023-08-31T03:58:00;2.60;;;2.40;;
40955;SDS011;26687;48.254;11.454;2023-08-31T04:01:02;2.75;;;2.55;;
40955;SDS011;26687;48.254;11.454;2023-08-31T04:04:03;3.58;;;2.30;;
40955;SDS011;26687;48.254;11.454;2023-08-31T04:07:04;2.58;;;2.38;;
40955;SDS011;26687;48.254;11.454;2023-08-31T04:10:05;2.30;;;2.20;;
40955;SDS011;26687;48.254;11.454;2023-08-31T04:13:05;2.80;;;2.60;;
40955;SDS011;26687;48.254;11.454;2023-08-31T04:16:05;2.53;;;2.33;;
40955;SDS011;26687;48.254;11.454;2023-08-31T04:19:05;2.65;;;2.28;;
40955;SDS011;26687;48.254;11.454;2023-08-31T04:22:05;2.83;;;2.40;;
40955;SDS011;26687;48.254;11.454;2023-08-31T04:25:06;2.72;;;2.50;;
40955;SDS011;26687;48.254;11.454;2023-08-31T04:28:06;4.15;;;2.83;;
40955;SDS011;26687;48.254;11.454;2023-08-31T04:31:06;4.55;;;2.50;;
40955;SDS011;26687;48.254;11.454;2023-08-31T04:34:07;2.85;;;2.33;;
40955;SDS011;26687;48.254;11.454;2023-08-31T04:37:07;2.90;;;2.70;;
40955;SDS011;26687;48.254;11.454;2023-08-31T04:40:07;2.50;;;2.28;;
40955;SDS011;26687;48.254;11.454;2023-08-31T04:43:08;2.33;;;2.13;;
40955;SDS011;26687;48.254;11.454;2023-08-31T04:46:09;3.03;;;2.40;;
40955;SDS011;26687;48.254;11.454;2023-08-31T04:49:09;2.88;;;2.67;;
40955;SDS011;26687;48.254;11.454;2023-08-31T04:52:10;2.73;;;2.33;;
40955;SDS011;26687;48.254;11.454;2023-08-31T04:55:12;2.28;;;2.08;;
40955;SDS011;26687;48.254;11.454;2023-08-31T04:58:13;2.70;;;2.50;;
40955;SDS011;26687;48.254;11.454;2023-08-31T05:01:13;2.67;;;2.47;;
40955;SDS011;26687;48.254;11.454;2023-08-31T05:04:13;3.00;;;2.13;;
40955;SDS011;26687;48.254;11.454;2023-08-31T05:07:13;2.50;;;2.30;;
40955;SDS011;26687;48.254;11.454;2023-08-31T05:10:13;2.55;;;2.35;;
40955;SDS011;26687;48.254;11.454;2023-08-31T05:13:13;2.22;;;2.03;;
40955;SDS011;26687;48.254;11.454;2023-08-31T05:16:14;2.28;;;1.95;;
40955;SDS011;26687;48.254;11.454;2023-08-31T05:19:14;2.67;;;2.20;;
40955;SDS011;26687;48.254;11.454;2023-08-31T05:22:14;2.13;;;1.90;;
40955;SDS011;26687;48.254;11.454;2023-08-31T05:25:14;1.90;;;1.80;;
40955;SDS011;26687;48.254;11.454;2023-08-31T05:28:14;5.03;;;1.92;;
40955;SDS011;26687;48.254;11.454;2023-08-31T05:31:15;2.10;;;2.00;;
40955;SDS011;26687;48.254;11.454;2023-08-31T05:34:16;2.30;;;2.10;;
40955;SDS011;26687;48.254;11.454;2023-08-31T05:37:16;2.88;;;1.98;;
40955;SDS011;26687;48.254;11.454;2023-08-31T05:40:16;3.45;;;2.03;;
40955;SDS011;26687;48.254;11.454;2023-08-31T05:43:16;2.53;;;2.30;;
40955;SDS011;26687;48.254;11.454;2023-08-31T05:46:17;3.10;;;1.97;;
40955;SDS011;26687;48.254;11.454;2023-08-31T05:49:17;2.80;;;2.20;;
40955;SDS011;26687;48.254;11.454;2023-08-31T05:52:17;2.13;;;1.93;;
40955;SDS011;26687;48.254;11.454;2023-08-31T05:55:17;2.05;;;1.75;;
40955;SDS011;26687;48.254;11.454;2023-08-31T05:58:17;2.47;;;2.03;;
40955;SDS011;26687;48.254;11.454;2023-08-31T06:01:18;2.10;;;1.50;;
40955;SDS011;26687;48.254;11.454;2023-08-31T06:04:18;2.17;;;1.77;;
40955;SDS011;26687;48.254;11.454;2023-08-31T06:07:18;1.92;;;1.77;;
40955;SDS011;26687;48.254;11.454;2023-08-31T06:10:18;2.53;;;1.80;;
40955;SDS011;26687;48.254;11.454;2023-08-31T06:13:18;1.90;;;1.80;;
40955;SDS011;26687;48.254;11.454;2023-08-31T06:16:18;2.13;;;1.90;;
40955;SDS011;26687;48.254;11.454;2023-08-31T06:19:19;1.70;;;1.60;;
40955;SDS011;26687;48.254;11.454;2023-08-31T06:22:19;2.63;;;1.92;;
40955;SDS011;26687;48.254;11.454;2023-08-31T06:25:21;1.70;;;1.60;;
40955;SDS011;26687;48.254;11.454;2023-08-31T06:28:22;1.65;;;1.52;;
40955;SDS011;26687;48.254;11.454;2023-08-31T06:31:23;1.77;;;1.67;;
40955;SDS011;26687;48.254;11.454;2023-08-31T06:34:23;1.48;;;1.38;;
40955;SDS011;26687;48.254;11.454;2023-08-31T06:37:23;1.63;;;1.52;;
40955;SDS011;26687;48.254;11.454;2023-08-31T06:40:23;1.48;;;1.30;;
40955;SDS011;26687;48.254;11.454;2023-08-31T06:43:24;1.55;;;1.45;;
40955;SDS011;26687;48.254;11.454;2023-08-31T06:46:26;1.57;;;1.43;;
40955;SDS011;26687;48.254;11.454;2023-08-31T06:49:26;1.60;;;1.50;;
40955;SDS011;26687;48.254;11.454;2023-08-31T06:52:27;1.98;;;1.42;;
40955;SDS011;26687;48.254;11.454;2023-08-31T06:55:27;1.70;;;1.60;;
40955;SDS011;26687;48.254;11.454;2023-08-31T06:58:28;1.23;;;1.13;;
40955;SDS011;26687;48.254;11.454;2023-08-31T07:01:28;2.08;;;1.20;;
40955;SDS011;26687;48.254;11.454;2023-08-31T07:04:29;1.77;;;1.40;;
40955;SDS011;26687;48.254;11.454;2023-08-31T07:07:29;1.30;;;1.10;;
40955;SDS011;26687;48.254;11.454;2023-08-31T07:10:29;2.70;;;1.25;;
40955;SDS011;26687;48.254;11.454;2023-08-31T07:13:30;1.65;;;1.13;;
40955;SDS011;26687;48.254;11.454;2023-08-31T07:16:30;1.58;;;1.35;;
40955;SDS011;26687;48.254;11.454;2023-08-31T07:19:30;3.55;;;0.95;;
40955;SDS011;26687;48.254;11.454;2023-08-31T07:22:31;3.17;;;1.23;;
40955;SDS011;26687;48.254;11.454;2023-08-31T07:25:31;1.88;;;1.40;;
40955;SDS011;26687;48.254;11.454;2023-08-31T07:28:31;1.35;;;1.20;;
40955;SDS011;26687;48.254;11.454;2023-08-31T07:31:31;1.33;;;1.20;;
40955;SDS011;26687;48.254;11.454;2023-08-31T07:34:31;1.67;;;1.45;;
40955;SDS011;26687;48.254;11.454;2023-08-31T07:37:33;1.30;;;1.20;;
40955;SDS011;26687;48.254;11.454;2023-08-31T07:40:33;1.40;;;1.30;;
40955;SDS011;26687;48.254;11.454;2023-08-31T07:43:33;2.08;;;1.30;;
40955;SDS011;26687;48.254;11.454;2023-08-31T07:46:33;1.70;;;1.60;;
40955;SDS011;26687;48.254;11.454;2023-08-31T07:49:33;1.73;;;1.30;;
40955;SDS011;26687;48.254;11.454;2023-08-31T07:52:34;3.40;;;1.40;;
40955;SDS011;26687;48.254;11.454;2023-08-31T07:55:34;3.25;;;1.50;;
40955;SDS011;26687;48.254;11.454;2023-08-31T07:58:35;1.70;;;1.30;;
40955;SDS011;26687;48.254;11.454;2023-08-31T08:01:35;1.53;;;1.27;;
40955;SDS011;26687;48.254;11.454;2023-08-31T08:04:35;2.13;;;1.50;;
40955;SDS011;26687;48.254;11.454;2023-08-31T08:07:35;3.65;;;1.00;;
40955;SDS011;26687;48.254;11.454;2023-08-31T08:10:36;2.10;;;1.55;;
40955;SDS011;26687;48.254;11.454;2023-08-31T08:13:36;2.72;;;1.35;;
40955;SDS011;26687;48.254;11.454;2023-08-31T08:16:36;2.97;;;1.30;;
40955;SDS011;26687;48.254;11.454;2023-08-31T08:19:36;2.20;;;1.40;;
40955;SDS011;26687;48.254;11.454;2023-08-31T08:22:36;1.20;;;1.10;;
40955;SDS011;26687;48.254;11.454;2023-08-31T08:25:37;2.30;;;1.40;;
40955;SDS011;26687;48.254;11.454;2023-08-31T08:28:37;3.10;;;1.20;;
40955;SDS011;26687;48.254;11.454;2023-08-31T08:31:37;3.60;;;1.52;;
40955;SDS011;26687;48.254;11.454;2023-08-31T08:34:37;1.70;;;1.23;;
40955;SDS011;26687;48.254;11.454;2023-08-31T08:37:37;3.33;;;1.17;;
40955;SDS011;26687;48.254;11.454;2023-08-31T08:40:38;2.35;;;1.20;;
40955;SDS011;26687;48.254;11.454;2023-08-31T08:43:38;2.27;;;1.37;;
40955;SDS011;26687;48.254;11.454;2023-08-31T08:46:40;2.15;;;1.45;;
40955;SDS011;26687;48.254;11.454;2023-08-31T08:49:40;1.75;;;1.40;;
40955;SDS011;26687;48.254;11.454;2023-08-31T08:52:41;3.65;;;1.67;;
40955;SDS011;26687;48.254;11.454;2023-08-31T08:55:41;3.40;;;1.48;;
40955;SDS011;26687;48.254;11.454;2023-08-31T08:58:42;2.97;;;1.33;;
40955;SDS011;26687;48.254;11.454;2023-08-31T09:01:42;2.72;;;1.40;;
40955;SDS011;26687;48.254;11.454;2023-08-31T09:04:42;2.38;;;1.42;;
40955;SDS011;26687;48.254;11.454;2023-08-31T09:08:01;2.33;;;1.55;;
40955;SDS011;26687;48.254;11.454;2023-08-31T09:11:01;3.58;;;1.50;;
40955;SDS011;26687;48.254;11.454;2023-08-31T09:14:14;2.00;;;1.40;;
40955;SDS011;26687;48.254;11.454;2023-08-31T09:20:15;2.25;;;1.17;;
40955;SDS011;26687;48.254;11.454;2023-08-31T09:23:16;3.97;;;1.50;;
40955;SDS011;26687;48.254;11.454;2023-08-31T09:26:16;2.25;;;1.40;;
40955;SDS011;26687;48.254;11.454;2023-08-31T09:29:17;3.08;;;1.17;;
40955;SDS011;26687;48.254;11.454;2023-08-31T09:32:18;2.17;;;1.30;;
40955;SDS011;26687;48.254;11.454;2023-08-31T09:35:18;3.28;;;1.50;;
40955;SDS011;26687;48.254;11.454;2023-08-31T09:38:18;2.57;;;1.70;;
40955;SDS011;26687;48.254;11.454;2023-08-31T09:41:18;2.93;;;1.20;;
40955;SDS011;26687;48.254;11.454;2023-08-31T09:44:19;3.42;;;1.50;;
40955;SDS011;26687;48.254;11.454;2023-08-31T09:47:19;3.30;;;1.30;;
40955;SDS011;26687;48.254;11.454;2023-08-31T09:50:19;2.95;;;1.77;;
40955;SDS011;26687;48.254;11.454;2023-08-31T09:53:20;3.17;;;1.30;;
40955;SDS011;26687;48.254;11.454;2023-08-31T09:56:21;2.80;;;1.40;;
40955;SDS011;26687;48.254;11.454;2023-08-31T09:59:22;2.67;;;1.40;;
40955;SDS011;26687;48.254;11.454;2023-08-31T10:02:22;3.10;;;1.23;;
40955;SDS011;26687;48.254;11.454;2023-08-31T10:05:23;3.72;;;1.30;;
40955;SDS011;26687;48.254;11.454;2023-08-31T10:08:23;3.38;;;1.65;;
40955;SDS011;26687;48.254;11.454;2023-08-31T10:11:26;2.53;;;1.13;;
40955;SDS011;26687;48.254;11.454;2023-08-31T10:14:26;2.73;;;1.50;;
40955;SDS011;26687;48.254;11.454;2023-08-31T10:17:26;2.88;;;1.40;;
40955;SDS011;26687;48.254;11.454;2023-08-31T10:20:27;2.30;;;1.73;;
40955;SDS011;26687;48.254;11.454;2023-08-31T10:23:31;2.72;;;1.42;;
40955;SDS011;26687;48.254;11.454;2023-08-31T10:26:32;3.08;;;1.45;;
40955;SDS011;26687;48.254;11.454;2023-08-31T10:29:32;3.60;;;1.50;;
40955;SDS011;26687;48.254;11.454;2023-08-31T10:32:33;2.55;;;1.50;;
40955;SDS011;26687;48.254;11.454;2023-08-31T10:35:48;3.72;;;1.60;;
40955;SDS011;26687;48.254;11.454;2023-08-31T10:41:57;2.80;;;1.75;;
40955;SDS011;26687;48.254;11.454;2023-08-31T10:45:06;2.25;;;1.40;;
40955;SDS011;26687;48.254;11.454;2023-08-31T10:48:07;4.22;;;1.50;;
40955;SDS011;26687;48.254;11.454;2023-08-31T10:51:07;3.63;;;1.60;;
40955;SDS011;26687;48.254;11.454;2023-08-31T10:54:08;2.37;;;1.30;;
40955;SDS011;26687;48.254;11.454;2023-08-31T10:57:14;3.20;;;1.60;;
40955;SDS011;26687;48.254;11.454;2023-08-31T11:00:20;2.95;;;1.60;;
40955;SDS011;26687;48.254;11.454;2023-08-31T11:10:30;4.75;;;1.40;;
40955;SDS011;26687;48.254;11.454;2023-08-31T11:13:31;2.92;;;1.48;;
40955;SDS011;26687;48.254;11.454;2023-08-31T11:16:31;3.47;;;1.50;;
40955;SDS011;26687;48.254;11.454;2023-08-31T11:19:32;3.20;;;1.33;;
40955;SDS011;26687;48.254;11.454;2023-08-31T11:22:32;5.18;;;1.50;;
40955;SDS011;26687;48.254;11.454;2023-08-31T11:25:33;1.90;;;1.40;;
40955;SDS011;26687;48.254;11.454;2023-08-31T11:28:33;1.37;;;1.17;;
40955;SDS011;26687;48.254;11.454;2023-08-31T11:31:40;1.73;;;1.23;;
40955;SDS011;26687;48.254;11.454;2023-08-31T11:34:40;2.25;;;1.15;;
40955;SDS011;26687;48.254;11.454;2023-08-31T11:37:43;2.03;;;1.20;;
40955;SDS011;26687;48.254;11.454;2023-08-31T11:40:43;2.15;;;1.45;;
40955;SDS011;26687;48.254;11.454;2023-08-31T11:43:43;2.60;;;1.23;;
40955;SDS011;26687;48.254;11.454;2023-08-31T11:46:45;2.78;;;1.42;;
40955;SDS011;26687;48.254;11.454;2023-08-31T11:49:48;2.15;;;1.20;;
40955;SDS011;26687;48.254;11.454;2023-08-31T11:52:48;2.20;;;1.08;;
40955;SDS011;26687;48.254;11.454;2023-08-31T11:55:49;1.57;;;1.00;;
40955;SDS011;26687;48.254;11.454;2023-08-31T11:58:50;1.60;;;1.10;;
40955;SDS011;26687;48.254;11.454;2023-08-31T12:01:50;1.38;;;0.90;;
40955;SDS011;26687;48.254;11.454;2023-08-31T12:04:51;2.17;;;1.10;;
40955;SDS011;26687;48.254;11.454;2023-08-31T12:07:52;2.40;;;1.17;;
40955;SDS011;26687;48.254;11.454;2023-08-31T12:10:54;3.38;;;1.25;;
40955;SDS011;26687;48.254;11.454;2023-08-31T12:13:59;2.13;;;1.20;;
40955;SDS011;26687;48.254;11.454;2023-08-31T12:17:00;2.88;;;1.10;;
40955;SDS011;26687;48.254;11.454;2023-08-31T12:20:04;1.73;;;1.40;;
40955;SDS011;26687;48.254;11.454;2023-08-31T12:23:05;2.95;;;1.35;;
40955;SDS011;26687;48.254;11.454;2023-08-31T12:26:05;2.40;;;1.27;;
40955;SDS011;26687;48.254;11.454;2023-08-31T12:29:07;3.37;;;1.30;;
40955;SDS011;26687;48.254;11.454;2023-08-31T12:32:08;3.47;;;1.53;;
40955;SDS011;26687;48.254;11.454;2023-08-31T12:35:08;2.03;;;1.20;;
40955;SDS011;26687;48.254;11.454;2023-08-31T12:38:09;2.00;;;1.30;;
40955;SDS011;26687;48.254;11.454;2023-08-31T12:41:10;2.37;;;1.27;;
40955;SDS011;26687;48.254;11.454;2023-08-31T12:44:10;4.10;;;1.90;;
40955;SDS011;26687;48.254;11.454;2023-08-31T12:47:10;2.63;;;1.40;;
40955;SDS011;26687;48.254;11.454;2023-08-31T12:50:10;3.47;;;1.42;;
40955;SDS011;26687;48.254;11.454;2023-08-31T12:53:10;1.85;;;1.55;;
40955;SDS011;26687;48.254;11.454;2023-08-31T12:56:11;2.53;;;1.57;;
40955;SDS011;26687;48.254;11.454;2023-08-31T12:59:11;2.88;;;1.58;;
40955;SDS011;26687;48.254;11.454;2023-08-31T13:02:11;2.47;;;1.38;;
40955;SDS011;26687;48.254;11.454;2023-08-31T13:05:11;2.83;;;1.38;;
40955;SDS011;26687;48.254;11.454;2023-08-31T13:08:12;3.10;;;1.50;;
40955;SDS011;26687;48.254;11.454;2023-08-31T13:11:12;1.50;;;1.40;;
40955;SDS011;26687;48.254;11.454;2023-08-31T13:14:12;3.70;;;1.25;;
40955;SDS011;26687;48.254;11.454;2023-08-31T13:17:12;4.37;;;1.43;;
40955;SDS011;26687;48.254;11.454;2023-08-31T13:20:13;2.93;;;1.73;;
40955;SDS011;26687;48.254;11.454;2023-08-31T13:23:13;2.40;;;1.30;;
40955;SDS011;26687;48.254;11.454;2023-08-31T13:26:13;2.90;;;1.30;;
40955;SDS011;26687;48.254;11.454;2023-08-31T13:29:13;2.80;;;1.50;;
40955;SDS011;26687;48.254;11.454;2023-08-31T13:32:14;3.63;;;1.58;;
40955;SDS011;26687;48.254;11.454;2023-08-31T13:35:14;3.47;;;1.55;;
40955;SDS011;26687;48.254;11.454;2023-08-31T13:38:14;1.85;;;1.40;;
40955;SDS011;26687;48.254;11.454;2023-08-31T13:41:14;3.40;;;1.43;;
40955;SDS011;26687;48.254;11.454;2023-08-31T13:44:15;4.80;;;1.50;;
40955;SDS011;26687;48.254;11.454;2023-08-31T13:47:15;3.30;;;1.80;;
40955;SDS011;26687;48.254;11.454;2023-08-31T13:50:15;1.98;;;1.33;;
40955;SDS011;26687;48.254;11.454;2023-08-31T13:53:16;3.72;;;1.50;;
40955;SDS011;26687;48.254;11.454;2023-08-31T13:56:16;3.47;;;1.23;;
40955;SDS011;26687;48.254;11.454;2023-08-31T13:59:16;2.13;;;1.35;;
40955;SDS011;26687;48.254;11.454;2023-08-31T14:02:16;1.87;;;1.30;;
40955;SDS011;26687;48.254;11.454;2023-08-31T14:05:17;3.10;;;1.25;;
40955;SDS011;26687;48.254;11.454;2023-08-31T14:08:17;1.40;;;1.10;;
40955;SDS011;26687;48.254;11.454;2023-08-31T14:11:17;1.13;;;1.00;;
40955;SDS011;26687;48.254;11.454;2023-08-31T14:14:17;2.67;;;1.25;;
40955;SDS011;26687;48.254;11.454;2023-08-31T14:17:18;2.38;;;1.48;;
40955;SDS011;26687;48.254;11.454;2023-08-31T14:20:18;2.17;;;1.25;;
40955;SDS011;26687;48.254;11.454;2023-08-31T14:23:19;2.60;;;1.50;;
40955;SDS011;26687;48.254;11.454;2023-08-31T14:26:19;2.70;;;1.30;;
40955;SDS011;26687;48.254;11.454;2023-08-31T14:29:19;1.67;;;1.20;;
40955;SDS011;26687;48.254;11.454;2023-08-31T14:32:19;2.47;;;1.13;;
40955;SDS011;26687;48.254;11.454;2023-08-31T14:35:19;1.92;;;0.95;;
40955;SDS011;26687;48.254;11.454;2023-08-31T14:38:20;2.70;;;1.25;;
40955;SDS011;26687;48.254;11.454;2023-08-31T14:41:21;4.50;;;1.38;;
40955;SDS011;26687;48.254;11.454;2023-08-31T14:44:22;2.15;;;1.15;;
40955;SDS011;26687;48.254;11.454;2023-08-31T14:47:22;2.70;;;1.20;;
40955;SDS011;26687;48.254;11.454;2023-08-31T14:50:22;2.03;;;1.10;;
40955;SDS011;26687;48.254;11.454;2023-08-31T14:53:22;2.63;;;1.23;;
40955;SDS011;26687;48.254;11.454;2023-08-31T14:56:23;3.40;;;1.17;;
40955;SDS011;26687;48.254;11.454;2023-08-31T14:59:23;2.55;;;1.10;;
40955;SDS011;26687;48.254;11.454;2023-08-31T15:02:24;1.60;;;1.13;;
40955;SDS011;26687;48.254;11.454;2023-08-31T15:05:24;2.60;;;1.38;;
40955;SDS011;26687;48.254;11.454;2023-08-31T15:08:35;2.95;;;1.27;;
40955;SDS011;26687;48.254;11.454;2023-08-31T15:11:35;3.50;;;1.30;;
40955;SDS011;26687;48.254;11.454;2023-08-31T15:14:36;1.80;;;1.10;;
40955;SDS011;26687;48.254;11.454;2023-08-31T15:17:38;1.70;;;1.20;;
40955;SDS011;26687;48.254;11.454;2023-08-31T15:20:39;2.00;;;1.40;;
40955;SDS011;26687;48.254;11.454;2023-08-31T15:23:41;1.77;;;1.30;;
40955;SDS011;26687;48.254;11.454;2023-08-31T15:26:42;2.67;;;1.30;;
40955;SDS011;26687;48.254;11.454;2023-08-31T15:29:42;2.92;;;1.33;;
40955;SDS011;26687;48.254;11.454;2023-08-31T15:32:42;3.83;;;1.23;;
40955;SDS011;26687;48.254;11.454;2023-08-31T15:35:42;2.60;;;1.20;;
40955;SDS011;26687;48.254;11.454;2023-08-31T15:38:42;2.85;;;1.20;;
40955;SDS011;26687;48.254;11.454;2023-08-31T15:41:43;3.22;;;1.38;;
40955;SDS011;26687;48.254;11.454;2023-08-31T15:44:43;2.42;;;1.15;;
40955;SDS011;26687;48.254;11.454;2023-08-31T15:47:43;3.00;;;1.48;;
40955;SDS011;26687;48.254;11.454;2023-08-31T15:50:43;1.40;;;1.00;;
40955;SDS011;26687;48.254;11.454;2023-08-31T15:53:44;2.13;;;1.08;;
40955;SDS011;26687;48.254;11.454;2023-08-31T15:56:44;1.83;;;1.20;;
40955;SDS011;26687;48.254;11.454;2023-08-31T15:59:45;2.55;;;1.30;;
40955;SDS011;26687;48.254;11.454;2023-08-31T16:02:45;2.25;;;1.48;;
40955;SDS011;26687;48.254;11.454;2023-08-31T16:05:47;2.13;;;1.50;;
40955;SDS011;26687;48.254;11.454;2023-08-31T16:08:48;3.00;;;1.40;;
40955;SDS011;26687;48.254;11.454;2023-08-31T16:11:48;3.08;;;1.30;;
40955;SDS011;26687;48.254;11.454;2023-08-31T16:14:48;3.30;;;1.25;;
40955;SDS011;26687;48.254;11.454;2023-08-31T16:17:49;3.22;;;1.33;;
40955;SDS011;26687;48.254;11.454;2023-08-31T16:20:50;2.05;;;1.38;;
40955;SDS011;26687;48.254;11.454;2023-08-31T16:23:50;2.55;;;1.50;;
40955;SDS011;26687;48.254;11.454;2023-08-31T16:26:50;3.20;;;1.60;;
40955;SDS011;26687;48.254;11.454;2023-08-31T16:29:50;2.83;;;1.38;;
40955;SDS011;26687;48.254;11.454;2023-08-31T16:32:50;3.33;;;1.40;;
40955;SDS011;26687;48.254;11.454;2023-08-31T16:35:57;1.15;;;1.05;;
40955;SDS011;26687;48.254;11.454;2023-08-31T16:38:58;2.45;;;1.42;;
40955;SDS011;26687;48.254;11.454;2023-08-31T16:41:58;2.40;;;1.67;;
40955;SDS011;26687;48.254;11.454;2023-08-31T16:44:59;1.70;;;1.27;;
40955;SDS011;26687;48.254;11.454;2023-08-31T16:47:59;2.85;;;1.40;;
40955;SDS011;26687;48.254;11.454;2023-08-31T16:50:59;2.13;;;1.40;;
40955;SDS011;26687;48.254;11.454;2023-08-31T16:53:59;1.83;;;1.20;;
40955;SDS011;26687;48.254;11.454;2023-08-31T16:56:59;3.38;;;1.30;;
40955;SDS011;26687;48.254;11.454;2023-08-31T17:00:00;1.87;;;1.10;;
40955;SDS011;26687;48.254;11.454;2023-08-31T17:03:00;1.85;;;1.30;;
40955;SDS011;26687;48.254;11.454;2023-08-31T17:06:00;1.75;;;1.25;;
40955;SDS011;26687;48.254;11.454;2023-08-31T17:09:00;2.03;;;1.23;;
40955;SDS011;26687;48.254;11.454;2023-08-31T17:12:03;3.28;;;1.33;;
40955;SDS011;26687;48.254;11.454;2023-08-31T17:15:04;2.30;;;1.35;;
40955;SDS011;26687;48.254;11.454;2023-08-31T17:18:04;3.05;;;1.30;;
40955;SDS011;26687;48.254;11.454;2023-08-31T17:21:05;2.30;;;1.50;;
40955;SDS011;26687;48.254;11.454;2023-08-31T17:24:05;4.13;;;1.70;;
40955;SDS011;26687;48.254;11.454;2023-08-31T17:27:06;2.40;;;1.60;;
40955;SDS011;26687;48.254;11.454;2023-08-31T17:30:06;1.77;;;1.20;;
40955;SDS011;26687;48.254;11.454;2023-08-31T17:33:06;2.03;;;1.42;;
40955;SDS011;26687;48.254;11.454;2023-08-31T17:36:07;2.53;;;1.43;;
40955;SDS011;26687;48.254;11.454;2023-08-31T17:39:07;2.40;;;1.38;;
40955;SDS011;26687;48.254;11.454;2023-08-31T17:42:07;1.73;;;1.30;;
40955;SDS011;26687;48.254;11.454;2023-08-31T17:45:08;2.03;;;1.60;;
40955;SDS011;26687;48.254;11.454;2023-08-31T17:48:08;2.30;;;1.27;;
40955;SDS011;26687;48.254;11.454;2023-08-31T17:51:08;3.17;;;1.37;;
40955;SDS011;26687;48.254;11.454;2023-08-31T17:54:09;2.97;;;1.50;;
40955;SDS011;26687;48.254;11.454;2023-08-31T17:57:09;3.45;;;1.40;;
40955;SDS011;26687;48.254;11.454;2023-08-31T18:00:10;3.67;;;2.08;;
40955;SDS011;26687;48.254;11.454;2023-08-31T18:03:10;3.38;;;1.50;;
40955;SDS011;26687;48.254;11.454;2023-08-31T18:06:10;1.77;;;1.40;;
40955;SDS011;26687;48.254;11.454;2023-08-31T18:09:11;3.15;;;1.70;;
40955;SDS011;26687;48.254;11.454;2023-08-31T18:12:12;2.22;;;1.50;;
40955;SDS011;26687;48.254;11.454;2023-08-31T18:15:12;2.00;;;1.48;;